Aérodrome :
LOGIN :

S'inscrire | Disclaimer

   EN    FR    IT 

 










Légende :    VFR   VFR Marginal   IFR   IFR Intensif   IFR Très Intensif
Visi : 
Plafond : 
>= 8 km
>= 3000ft
5 à 8 km
1000 à 3000 ft
1500m à 5 km
500 à 1000 ft
800 à 1500m
200 à 500 ft
< 800m
< 200 ft
Symboles :   Orages  Brouillard  Fortes neiges  Fortes précipitations  Vent > 20 kt
SIGMETs :   Divers  Orages  Givrage  Turbulence  Onde Orograph.  Cendres Volcan.







- Altitude de l'aérodrome : 505 ft
- Code IATA : SXB
- Voir les cartes d'approche


LFST - Strasbourg

DERNIER METAR :
  • 170130Z AUTO VRB02KT 9000 4400 NSC 08/07 Q1024 TEMPO 4000 MIFG

METARs EXPIRÉS :
  • 170100Z AUTO VRB02KT CAVOK 08/08 Q1024 TEMPO 4000 MIFG
  • 170030Z AUTO 00000KT CAVOK 08/08 Q1024 TEMPO 4000 MIFG
  • 170000Z AUTO VRB01KT CAVOK 09/08 Q1024 TEMPO 4000 MIFG
  • 162330Z AUTO VRB02KT CAVOK 09/08 Q1024 TEMPO 4000 MIFG
  • 162300Z AUTO VRB01KT CAVOK 09/08 Q1024 TEMPO 0600 FG VV///

TAF TAF LFST
Valide du 17 à 00h jusqu'au 18 à 00h UTC


162300Z 1700/1724 VRB03KT CAVOK
TEMPO 1700/1707 4000 MIFG
Pas de NOTAMs connus pour ce terrain.



MET'MAP, la Météo Aéronautique d'un coup d'oeil ! - Copyright ORBIFLY Décembre 2007 - Disclaimer

ORBIFLY MET'MAP TEAM :

Programmation & Développement : Alexandra Zaïnal
Conception & Développement : Baudouin d'Aumeries
Co-Programmation & Développement : Marc-Olivier Méhu
Soutien technique & logistique : Manuel Goepfert

Contact : metmap@orbifly.com




SOURCES & CREDITS :

   NOAA